• Join FlightAware (Why Join?)
  • Login
  • US Flag 
04:43AM EST


 

Airport Tracker/Info


-or-


 

Live Flight TrackerFlight Track Log ✈ CSN6456 ✈ 16-Aug-2013 ✈ ZBOW / BAV - ZYTX / SHE

Flight Track Log - Related Links

Times and Time Zones

All times are in EDT time to prevent confusion due to time zone crossing. See the CSN6456 flight status page for this flight to view local times or setup timezone preferences in your user account.

Time Position Orientation Groundspeed Altitude Reporting Facility
EDT Latitude Longitude Course Direction KTS MPH feet Rate Location/Type
06:39AM 40.5876 110.1942 80° East  Level Estimated
06:40AM 40.6148 110.3916 80° East  Level Estimated
06:41AM 40.6416 110.5892 80° East  Level Estimated
06:42AM 40.6682 110.7869 80° East  Level Estimated
06:43AM 40.6944 110.9848 80° East  Level Estimated
06:44AM 40.7202 111.1829 80° East  Level Estimated
06:45AM 40.7458 111.3811 80° East  Level Estimated
06:46AM 40.7709 111.5795 80° East  Level Estimated
06:47AM 40.7958 111.7780 81° East  Level Estimated
06:48AM 40.8203 111.9766 81° East  Level Estimated
06:49AM 40.8444 112.1754 81° East  Level Estimated
06:50AM 40.8683 112.3744 81° East  Level Estimated
06:51AM 40.8917 112.5735 81° East  Level Estimated
06:52AM 40.9149 112.7727 81° East  Level Estimated
06:53AM 40.9377 112.9721 81° East  Level Estimated
06:54AM 40.9601 113.1715 81° East  Level Estimated
06:55AM 40.9822 113.3712 82° East  Level Estimated
06:56AM 41.0040 113.5710 82° East  Level Estimated
06:57AM 41.0254 113.7709 82° East  Level Estimated
06:58AM 41.0465 113.9709 82° East  Level Estimated
06:59AM 41.0672 114.1711 82° East  Level Estimated
07:00AM 41.0876 114.3713 82° East  Level Estimated
07:01AM 41.1076 114.5717 82° East  Level Estimated
07:02AM 41.1273 114.7722 83° East  Level Estimated
07:03AM 41.1466 114.9729 83° East  Level Estimated
07:04AM 41.1656 115.1737 83° East  Level Estimated
07:05AM 41.1843 115.3745 83° East  Level Estimated
07:06AM 41.2026 115.5755 83° East  Level Estimated
07:07AM 41.2205 115.7766 83° East  Level Estimated
07:08AM 41.2381 115.9778 83° East  Level Estimated
07:08AM 42.0390 116.0630 83° East 505 581 37,100  Level FlightAware
07:08AM 42.0470 116.1870 85° East 505 581 37,100  Level FlightAware
07:11AM 42.0353 116.6380 92° East  Level Estimated
07:12AM 42.0295 116.8430 92° East  Level Estimated
07:13AM 42.0232 117.0479 92° East  Level Estimated
07:14AM 42.0166 117.2527 92° East  Level Estimated
07:15AM 42.0096 117.4576 93° East  Level Estimated
07:16AM 42.0023 117.6624 93° East  Level Estimated
07:17AM 41.9946 117.8671 93° East  Level Estimated
07:18AM 41.9865 118.0718 93° East  Level Estimated
07:19AM 41.9781 118.2764 93° East  Level Estimated
07:20AM 41.9693 118.4810 93° East  Level Estimated
07:21AM 41.9601 118.6855 93° East  Level Estimated
07:22AM 41.9506 118.8900 94° East  Level Estimated
07:23AM 41.9407 119.0943 94° East  Level Estimated
07:24AM 41.9305 119.2987 94° East  Level Estimated
07:25AM 41.9199 119.5029 94° East  Level Estimated
07:26AM 41.9089 119.7071 94° East  Level Estimated
07:27AM 41.8976 119.9112 94° East  Level Estimated
07:28AM 41.8859 120.1153 94° East  Level Estimated
07:29AM 41.8738 120.3193 94° East  Level Estimated
07:30AM 41.8614 120.5232 95° East  Level Estimated
07:31AM 41.8486 120.7270 95° East  Level Estimated
07:32AM 41.8355 120.9307 95° East  Level Estimated
07:33AM 41.8220 121.1344 95° East  Level Estimated
07:34AM 41.8082 121.3379 95° East  Level Estimated
07:35AM 41.7939 121.5414 95° East  Level Estimated
07:36AM 41.7794 121.7448 95° East  Level Estimated
07:37AM 41.7645 121.9481 96° East  Level Estimated
07:38AM 41.7492 122.1512 96° East  Level Estimated
07:39AM 41.7335 122.3543 96° East  Level Estimated
07:40AM 41.7175 122.5573 96° East  Level Estimated
07:41AM 41.7011 122.7602 96° East  Level Estimated
07:42AM 41.6844 122.9630 96° East  Level Estimated
07:43AM 41.6674 123.1657 96° East  Level Estimated
07:44AM 41.6499 123.3682 97° East  Level Estimated
07:45AM 41.6398 123.4834 97° East  Level Estimated
07:46AM 41.6398 123.4834 62° Northeast  Level Estimated
07:47AM 41.6398 123.4834 62° Northeast  Level Estimated
07:48AM 41.6398 123.4834 62° Northeast  Level Estimated
07:49AM 41.6398 123.4834 62° Northeast  Level Estimated
07:50AM 41.6398 123.4834 62° Northeast  Level Estimated
07:51AM 41.6398 123.4834 62° Northeast  Level Estimated
07:52AM 41.6398 123.4834 62° Northeast  Level Estimated
07:53AM 41.6398 123.4834 62° Northeast  Level Estimated
07:54AM 41.6398 123.4834 62° Northeast  Level Estimated
07:55AM 41.6398 123.4834 62° Northeast  Level Estimated
07:56AM 41.6398 123.4834 62° Northeast  Level Estimated
07:57AM 41.6398 123.4834 62° Northeast  Level Estimated
07:58AM 41.6398 123.4834 62° Northeast  Level Estimated
07:59AM 41.6398 123.4834 62° Northeast  Level Estimated
08:00AM 41.6398 123.4834 62° Northeast  Level Estimated
08:01AM 41.6398 123.4834 62° Northeast  Level Estimated